< < Back
Terminal Aerodrome Forecast


Current Version              Previous Versions:   1  2  3  4  5  6  7  8  9  

Terminal Aerodrome Forecast

051
FTUS42 KCHS 240200 AAB
TAFSAV
TAF AMD
KSAV 240237Z 2403/2424 17011KT 5SM -RA BR SCT008 OVC025
      WS015/22040KT
     FM240400 19011KT 5SM BR SCT008 OVC015 WS015/22040KT
      TEMPO 2404/2406 P6SM NSW
     FM240800 20008KT 2SM BR OVC008 WS020/22035KT
     FM241500 21012G18KT 6SM BR SCT008 BKN015
     FM241900 21010G16KT P6SM VCSH SCT015 BKN035=

Latest METAR

573
SAUS80 KWBC 240400 RRB
MTRSAV
METAR KSAV 240353Z 26006KT 10SM -RA SCT050 BKN100 21/18 A2986 RMK AO2
RAE0257B50 SLP109 P0001 T02060183 $


USA.gov is the U.S. government's official web portal to all federal, state and local government web resources and services.